Flugplatz Kerken (UL)

Hier findest Du alle Informationen zum Flugplatz Kerken (UL).

Informationen für Piloten zum Flugplatz Kerken

Hier findest Du alle relevanten Informationen, die Du als Pilot benötigst, um Kerken anzufliegen.

Flugplatz: Kerken ICAO-Code: UL Flugplatz
Frequenz Turm: 123,425 Mhz GAFOR Gebiet: 31
Frequenz Ground: 123,425 Mhz Mogas: nein
Platzrunde: W 500 ft Landegebühr: 0 €
Platzhöhe: - Sunrise: 07:24 Uhr UTC
Pisten: 02/20 - 280 m x 20 m, GRAS Sunset: 16:06 Uhr UTC

Mitglieder, die in Kerken fliegen

Flugwetter am Flugplatz Kerken

Die METAR Information stammen aus EDLN (23.66 km entfernt).

METAR Code:
2021/01/18 09:20
EDLN 180920Z 24008KT 210V290 9999 FEW010 BKN040 04/03 Q1023

Flugschulen am Flugplatz Kerken

Am Flugplatz Kerken gibt es leider keine Flugschule.

Benachbarte Flugplätze und Flugschulen

Es gibt 16 weitere Flugplätze in einem Umkreis von 50 km um den Flugplatz Kerken.

Jetzt anmelden

Passwort vergessen

Umfrage Archiv

Seid Ihr aufgrund von Corona im Jahr 2020 mehr oder weniger geflogen als im Jahr zuvor?

weniger
44.9 %
gleich viel
34.7 %
mehr
20.4 %
Stimmen: 49 | Diskussion
Anzeige: Roland Aircraft
Statistik Alle Mitglieder

Aktuell sind 54 Besucher online, davon 2 Mitglieder und 52 Gäste.


Mitglieder online:
Finisher  Porcaro 

Anzeige: VFR Sprechfunk Simulator


Anzeige: Pocket FMS